createdAt,value
2022-08-05T00:00:48.411Z,46.76
2022-08-05T00:06:04.736Z,46.67
2022-08-05T00:11:20.498Z,47.33
2022-08-05T00:16:36.254Z,47.21
2022-08-05T00:21:53.990Z,47.61
2022-08-05T00:26:57.047Z,49.07
2022-08-05T00:32:10.495Z,48.74
2022-08-05T00:37:15.306Z,49.05
2022-08-05T00:42:32.252Z,49.51
2022-08-05T00:47:56.783Z,49.31
2022-08-05T00:52:55.551Z,48.58
2022-08-05T00:57:58.907Z,49.28
2022-08-05T01:03:00.675Z,49.01
2022-08-05T01:08:31.645Z,49.89
2022-08-05T01:13:58.823Z,50.77
2022-08-05T01:19:11.046Z,50.28
2022-08-05T01:24:52.142Z,50.79
2022-08-05T01:30:00.074Z,49.95
2022-08-05T01:35:10.342Z,50.28
2022-08-05T01:40:17.914Z,50.38
2022-08-05T01:45:21.703Z,49.94
2022-08-05T01:50:32.557Z,50.05
2022-08-05T01:55:36.479Z,50.41
2022-08-05T02:00:42.623Z,52.50
2022-08-05T02:05:46.386Z,52.41
2022-08-05T02:10:53.971Z,52.70
2022-08-05T02:16:04.021Z,52.01
2022-08-05T02:21:14.925Z,52.23
2022-08-05T02:26:22.386Z,52.24
2022-08-05T02:31:28.430Z,52.25
2022-08-05T02:36:39.177Z,52.12
2022-08-05T02:41:58.125Z,53.55
2022-08-05T02:47:09.077Z,54.31
2022-08-05T02:52:29.589Z,55.36
2022-08-05T02:58:10.222Z,54.54
2022-08-05T03:02:55.756Z,54.46
2022-08-05T03:08:06.828Z,55.73
2022-08-05T03:13:17.845Z,57.67
2022-08-05T03:18:29.889Z,56.15
2022-08-05T03:23:32.599Z,55.76
2022-08-05T03:28:36.427Z,55.91
2022-08-05T03:33:51.333Z,55.64
2022-08-05T03:38:54.882Z,55.52
2022-08-05T03:44:08.074Z,55.34
2022-08-05T03:49:11.567Z,54.94
2022-08-05T03:55:50.066Z,55.82
2022-08-05T04:00:01.739Z,55.30
2022-08-05T04:05:05.696Z,55.51
2022-08-05T04:10:11.419Z,55.41
2022-08-05T04:15:19.048Z,56.43
2022-08-05T04:20:25.840Z,56.03
2022-08-05T04:25:56.428Z,56.40
2022-08-05T04:30:49.140Z,56.44
2022-08-05T04:36:15.829Z,56.93
2022-08-05T04:41:13.002Z,57.57
2022-08-05T04:46:15.113Z,57.54
2022-08-05T04:51:30.346Z,57.26
2022-08-05T04:56:35.162Z,57.15
2022-08-05T05:02:07.177Z,53.09
2022-08-05T05:07:00.041Z,50.95
2022-08-05T05:12:03.143Z,51.38
2022-08-05T05:17:07.452Z,51.48
2022-08-05T05:22:22.628Z,50.49
2022-08-05T05:27:45.684Z,49.40
2022-08-05T05:32:50.485Z,51.54
2022-08-05T05:38:00.380Z,54.69
2022-08-05T05:43:03.811Z,54.84
2022-08-05T05:48:08.808Z,55.95
2022-08-05T05:53:21.578Z,56.27
2022-08-05T05:58:31.501Z,56.44
2022-08-05T06:03:53.808Z,56.37
2022-08-05T06:08:55.205Z,56.18
2022-08-05T06:13:57.008Z,55.28
2022-08-05T06:19:00.008Z,54.90
2022-08-05T06:24:02.537Z,54.09
2022-08-05T06:29:25.524Z,51.61
2022-08-05T06:34:27.713Z,43.84
2022-08-05T06:39:29.317Z,38.40
2022-08-05T06:44:32.827Z,34.81
2022-08-05T06:50:00.848Z,34.30
2022-08-05T06:54:55.697Z,31.20
2022-08-05T06:59:58.338Z,29.14
2022-08-05T07:04:59.870Z,27.17
2022-08-05T07:10:03.525Z,28.50
2022-08-05T07:15:34.372Z,27.35
2022-08-05T07:20:45.696Z,25.80
2022-08-05T07:25:55.260Z,24.22
2022-08-05T07:30:57.992Z,24.48
2022-08-05T07:36:19.641Z,23.08
2022-08-05T07:42:07.743Z,21.99
2022-08-05T07:46:48.180Z,23.16
2022-08-05T07:51:54.629Z,23.90
2022-08-05T07:57:13.772Z,26.07
2022-08-05T08:02:18.294Z,31.09
2022-08-05T08:07:22.784Z,28.76
2022-08-05T08:12:33.410Z,25.53
2022-08-05T08:17:43.984Z,23.83
2022-08-05T08:22:56.956Z,23.69
2022-08-05T08:27:59.547Z,23.72
2022-08-05T08:33:04.372Z,23.14
2022-08-05T08:38:06.304Z,22.26
2022-08-05T08:44:56.517Z,21.39
2022-08-05T08:49:03.031Z,22.61
2022-08-05T08:53:58.068Z,22.69
2022-08-05T08:59:00.704Z,22.54
2022-08-05T09:04:02.184Z,23.39
2022-08-05T09:09:03.878Z,24.45
2022-08-05T09:14:54.520Z,24.13
2022-08-05T09:19:27.985Z,24.41
2022-08-05T09:24:38.503Z,23.49
2022-08-05T09:29:47.581Z,23.76
2022-08-05T09:34:55.055Z,22.38
2022-08-05T09:39:56.618Z,23.08
2022-08-05T09:46:05.080Z,22.69
2022-08-05T09:50:38.585Z,22.58
2022-08-05T09:55:58.237Z,23.28
2022-08-05T10:01:13.456Z,22.89
2022-08-05T10:06:20.659Z,23.93
2022-08-05T10:11:22.823Z,23.35
2022-08-05T10:16:30.248Z,23.56
2022-08-05T10:21:35.331Z,23.71
2022-08-05T10:26:51.578Z,24.30
2022-08-05T10:32:53.301Z,23.84
2022-08-05T10:37:15.946Z,24.04
2022-08-05T10:42:33.688Z,24.05
2022-08-05T10:47:41.048Z,25.22
2022-08-05T10:52:58.569Z,26.47
2022-08-05T10:58:11.348Z,26.20
2022-08-05T11:03:26.006Z,26.81
2022-08-05T11:08:37.327Z,27.06
2022-08-05T11:13:54.876Z,26.49
2022-08-05T11:20:16.826Z,27.16
2022-08-05T11:26:05.322Z,27.01
2022-08-05T11:30:58.227Z,27.54
2022-08-05T11:36:02.805Z,28.15
2022-08-05T11:41:57.849Z,28.58
2022-08-05T11:46:58.070Z,28.19
2022-08-05T11:52:00.565Z,28.67
2022-08-05T11:57:07.699Z,28.33
2022-08-05T12:02:30.488Z,29.48
2022-08-05T12:08:08.074Z,27.52
2022-08-05T12:13:04.228Z,28.06
2022-08-05T12:18:39.703Z,28.28
2022-08-05T12:23:54.483Z,28.09
2022-08-05T12:28:55.935Z,28.64
2022-08-05T12:33:58.265Z,29.07
2022-08-05T12:39:00.333Z,28.87
2022-08-05T12:44:05.161Z,29.30
2022-08-05T12:49:14.951Z,29.27
2022-08-05T12:54:23.342Z,28.42
2022-08-05T12:59:46.697Z,28.98
2022-08-05T13:04:52.555Z,29.08
2022-08-05T13:09:58.919Z,30.05
2022-08-05T13:15:07.486Z,30.85
2022-08-05T13:20:16.505Z,30.90
2022-08-05T13:25:21.909Z,30.98
2022-08-05T13:30:35.699Z,32.03
2022-08-05T13:35:47.102Z,32.72
2022-08-05T13:40:53.180Z,33.65
2022-08-05T13:45:54.696Z,34.57
2022-08-05T13:51:05.474Z,34.75
2022-08-05T13:56:09.574Z,34.64
2022-08-05T14:01:21.956Z,35.25
2022-08-05T14:06:29.056Z,35.95
2022-08-05T14:11:31.359Z,36.28
2022-08-05T14:16:33.249Z,36.65
2022-08-05T14:22:10.387Z,36.62
2022-08-05T14:27:17.625Z,37.16
2022-08-05T14:32:26.844Z,37.35
2022-08-05T14:37:44.867Z,37.76
2022-08-05T14:42:49.690Z,38.05
2022-08-05T14:48:03.318Z,37.65
2022-08-05T14:53:07.629Z,37.74
2022-08-05T14:58:11.622Z,37.75
2022-08-05T15:03:14.006Z,38.41
2022-08-05T15:08:38.065Z,37.68
2022-08-05T15:13:46.299Z,38.28
2022-08-05T15:18:51.731Z,38.50
2022-08-05T15:23:54.040Z,39.52
2022-08-05T15:28:55.488Z,39.52
2022-08-05T15:34:18.593Z,40.20
2022-08-05T15:41:04.090Z,40.10
2022-08-05T15:44:44.243Z,40.74
2022-08-05T15:49:56.729Z,40.47
2022-08-05T15:55:00.526Z,40.46
2022-08-05T16:00:08.057Z,40.62
2022-08-05T16:05:09.789Z,40.59
2022-08-05T16:10:12.920Z,40.43
2022-08-05T16:15:18.364Z,40.97
2022-08-05T16:20:20.402Z,41.08
2022-08-05T16:25:21.842Z,41.36
2022-08-05T16:30:36.207Z,41.66
2022-08-05T16:35:42.381Z,42.09
2022-08-05T16:40:51.761Z,42.76
2022-08-05T16:46:03.727Z,44.20
2022-08-05T16:51:10.865Z,45.77
2022-08-05T16:56:12.590Z,47.38
2022-08-05T17:01:14.500Z,48.17
2022-08-05T17:06:16.545Z,48.90
2022-08-05T17:11:18.250Z,49.17
2022-08-05T17:16:32.466Z,48.14
2022-08-05T17:21:36.715Z,48.12
2022-08-05T17:26:39.110Z,47.59
2022-08-05T17:31:58.304Z,47.45
2022-08-05T17:37:00.707Z,47.61
2022-08-05T17:42:19.628Z,47.08
2022-08-05T17:47:24.766Z,46.74
2022-08-05T17:52:27.910Z,46.90
2022-08-05T17:57:29.993Z,46.60
2022-08-05T18:02:34.187Z,46.86
2022-08-05T18:07:41.582Z,47.31
2022-08-05T18:12:43.613Z,47.51
2022-08-05T18:18:00.240Z,47.89
2022-08-05T18:23:11.965Z,48.40
2022-08-05T18:28:16.168Z,48.59
2022-08-05T18:33:23.112Z,49.24
2022-08-05T18:38:26.019Z,49.59
2022-08-05T18:43:28.063Z,50.41
2022-08-05T18:48:33.531Z,50.92
2022-08-05T18:53:34.991Z,51.91
2022-08-05T18:58:47.280Z,52.09
2022-08-05T19:03:53.025Z,52.66
2022-08-05T19:08:57.229Z,53.33
2022-08-05T19:14:01.031Z,53.43
2022-08-05T19:19:06.669Z,53.74
2022-08-05T19:24:13.896Z,54.09
2022-08-05T19:29:15.365Z,54.71
2022-08-05T19:34:20.658Z,54.76
2022-08-05T19:39:23.430Z,55.01
2022-08-05T19:44:30.266Z,55.19
2022-08-05T19:49:31.732Z,55.01
2022-08-05T19:54:34.647Z,55.80
2022-08-05T19:59:55.960Z,56.02
2022-08-05T20:05:00.056Z,55.33
2022-08-05T20:10:04.832Z,55.21
2022-08-05T20:15:13.810Z,55.34
2022-08-05T20:20:15.571Z,55.27
2022-08-05T20:25:17.073Z,55.37
2022-08-05T20:30:19.784Z,55.46
2022-08-05T20:35:21.443Z,55.03
2022-08-05T20:40:23.467Z,55.05
2022-08-05T20:45:25.083Z,55.37
2022-08-05T20:50:46.895Z,55.49
2022-08-05T20:55:56.767Z,55.33
2022-08-05T21:01:09.910Z,54.75
2022-08-05T21:06:27.673Z,54.38
2022-08-05T21:12:10.797Z,54.15
2022-08-05T21:16:51.802Z,54.19
2022-08-05T21:21:53.212Z,53.46
2022-08-05T21:26:58.485Z,53.54
2022-08-05T21:32:02.368Z,53.71
2022-08-05T21:37:04.851Z,53.71
2022-08-05T21:42:07.016Z,53.95
2022-08-05T21:47:55.018Z,54.55
2022-08-05T21:52:49.866Z,54.81
2022-08-05T21:57:51.796Z,54.39
2022-08-05T22:02:55.097Z,54.69
2022-08-05T22:07:59.259Z,54.52
2022-08-05T22:13:08.640Z,54.62
2022-08-05T22:18:12.251Z,54.52
2022-08-05T22:24:00.905Z,55.30
2022-08-05T22:28:55.713Z,55.32
2022-08-05T22:34:01.210Z,55.37
2022-08-05T22:39:09.117Z,55.61
2022-08-05T22:44:12.044Z,55.85
2022-08-05T22:50:17.309Z,56.02
2022-08-05T22:54:36.532Z,56.25
2022-08-05T22:59:48.576Z,56.66
2022-08-05T23:04:53.518Z,55.55
2022-08-05T23:10:00.962Z,55.15
2022-08-05T23:15:08.854Z,54.56
2022-08-05T23:20:17.923Z,54.29
2022-08-05T23:25:53.093Z,53.89
2022-08-05T23:30:43.398Z,53.42
2022-08-05T23:35:45.125Z,53.88
2022-08-05T23:40:50.003Z,53.63
2022-08-05T23:45:51.975Z,52.84
2022-08-05T23:50:53.452Z,52.22
2022-08-05T23:55:54.951Z,52.12
